createdAt,value
2019-04-01T00:02:37.554Z,1.10
2019-04-01T00:05:18.339Z,1.60
2019-04-01T00:07:58.772Z,1.20
2019-04-01T00:10:39.532Z,1.00
2019-04-01T00:13:20.289Z,2.27
2019-04-01T00:16:01.317Z,1.40
2019-04-01T00:18:42.196Z,1.30
2019-04-01T00:21:23.068Z,1.20
2019-04-01T00:24:03.868Z,1.00
2019-04-01T00:30:01.647Z,1.37
2019-04-01T00:35:56.669Z,1.33
2019-04-01T00:38:44.541Z,1.00
2019-04-01T00:41:32.334Z,1.30
2019-04-01T00:44:20.369Z,1.30
2019-04-01T00:47:08.395Z,1.40
2019-04-01T00:49:56.324Z,1.30
2019-04-01T00:55:33.316Z,1.20
2019-04-01T00:58:14.383Z,1.30
2019-04-01T01:00:54.977Z,1.30
2019-04-01T01:03:35.630Z,1.30
2019-04-01T01:06:16.164Z,1.30
2019-04-01T01:08:57.295Z,1.30
2019-04-01T01:11:38.004Z,1.30
2019-04-01T01:14:18.725Z,1.30
2019-04-01T01:17:00.208Z,1.40
2019-04-01T01:19:41.505Z,1.20
2019-04-01T01:22:22.407Z,1.20
2019-04-01T01:25:03.311Z,1.50
2019-04-01T01:31:03.144Z,1.30
2019-04-01T01:33:43.799Z,1.57
2019-04-01T01:36:24.875Z,1.40
2019-04-01T01:39:07.963Z,1.27
2019-04-01T01:41:48.527Z,1.50
2019-04-01T01:44:29.022Z,1.70
2019-04-01T01:47:09.968Z,1.40
2019-04-01T01:49:50.591Z,1.43
2019-04-01T01:52:30.967Z,1.40
2019-04-01T01:55:11.603Z,1.40
2019-04-01T01:57:52.268Z,1.43
2019-04-01T02:03:38.006Z,1.20
2019-04-01T02:09:14.742Z,1.00
2019-04-01T02:12:02.616Z,1.40
2019-04-01T02:14:50.519Z,1.23
2019-04-01T02:17:38.450Z,1.17
2019-04-01T02:20:28.007Z,1.53
2019-04-01T02:23:15.906Z,1.40
2019-04-01T02:26:03.834Z,1.47
2019-04-01T02:28:51.739Z,1.43
2019-04-01T02:31:39.679Z,1.37
2019-04-01T02:34:08.240Z,1.30
2019-04-01T02:36:56.438Z,1.40
2019-04-01T02:39:44.339Z,1.53
2019-04-01T02:42:32.273Z,1.00
2019-04-01T02:48:08.965Z,1.20
2019-04-01T02:50:56.893Z,1.50
2019-04-01T02:53:44.787Z,1.23
2019-04-01T02:56:13.375Z,1.30
2019-04-01T02:58:53.756Z,1.67
2019-04-01T03:01:34.743Z,1.33
2019-04-01T03:04:03.314Z,1.80
2019-04-01T03:06:51.265Z,1.60
2019-04-01T03:09:19.807Z,1.07
2019-04-01T03:12:07.737Z,1.30
2019-04-01T03:14:55.634Z,1.40
2019-04-01T03:17:43.556Z,1.00
2019-04-01T03:20:31.735Z,1.43
2019-04-01T03:23:19.664Z,1.60
2019-04-01T03:26:07.088Z,1.47
2019-04-01T03:28:54.992Z,1.53
2019-04-01T03:31:42.918Z,1.30
2019-04-01T03:34:30.825Z,1.60
2019-04-01T03:37:18.753Z,1.37
2019-04-01T03:40:06.733Z,1.50
2019-04-01T03:42:54.657Z,1.53
2019-04-01T03:45:42.552Z,1.30
2019-04-01T03:48:30.476Z,1.43
2019-04-01T03:51:18.400Z,1.57
2019-04-01T03:53:46.974Z,1.67
2019-04-01T03:56:34.963Z,1.50
2019-04-01T03:59:15.710Z,1.67
2019-04-01T04:01:56.355Z,1.50
2019-04-01T04:04:37.632Z,1.53
2019-04-01T04:07:06.215Z,1.60
2019-04-01T04:09:54.118Z,1.40
2019-04-01T04:13:00.072Z,1.47
2019-04-01T04:18:36.484Z,1.30
2019-04-01T04:21:24.653Z,1.50
2019-04-01T04:24:13.965Z,1.70
2019-04-01T04:27:01.899Z,1.40
2019-04-01T04:29:49.831Z,1.30
2019-04-01T04:32:37.746Z,1.40
2019-04-01T04:35:25.652Z,1.43
2019-04-01T04:38:13.593Z,1.47
2019-04-01T04:41:01.483Z,1.53
2019-04-01T04:43:49.411Z,1.30
2019-04-01T04:46:37.352Z,1.47
2019-04-01T04:49:42.591Z,1.57
2019-04-01T04:52:11.184Z,1.47
2019-04-01T04:54:59.093Z,1.60
2019-04-01T04:57:39.743Z,1.30
2019-04-01T05:00:20.160Z,1.17
2019-04-01T05:03:01.144Z,1.60
2019-04-01T05:05:42.095Z,1.87
2019-04-01T05:08:22.884Z,1.63
2019-04-01T05:11:03.522Z,1.67
2019-04-01T05:13:44.378Z,1.50
2019-04-01T05:16:24.951Z,1.93
2019-04-01T05:19:05.965Z,1.50
2019-04-01T05:22:14.611Z,1.60
2019-04-01T05:25:02.789Z,1.50
2019-04-01T05:28:11.441Z,1.53
2019-04-01T05:30:59.615Z,1.80
2019-04-01T05:34:08.275Z,1.30
2019-04-01T05:36:56.547Z,1.60
2019-04-01T05:39:44.840Z,1.53
2019-04-01T05:42:13.423Z,1.53
2019-04-01T05:45:01.326Z,1.87
2019-04-01T05:47:51.502Z,1.47
2019-04-01T05:50:39.486Z,1.60
2019-04-01T05:53:27.575Z,1.50
2019-04-01T05:56:52.408Z,1.87
2019-04-01T05:59:33.367Z,1.93
2019-04-01T06:02:13.997Z,1.80
2019-04-01T06:04:54.988Z,2.07
2019-04-01T06:07:35.868Z,1.90
2019-04-01T06:13:35.790Z,1.73
2019-04-01T06:16:16.832Z,1.53
2019-04-01T06:18:57.947Z,1.63
2019-04-01T06:21:38.589Z,1.93
2019-04-01T06:24:19.651Z,1.43
2019-04-01T06:27:00.506Z,1.40
2019-04-01T06:29:41.332Z,1.60
2019-04-01T06:32:22.127Z,1.83
2019-04-01T06:35:03.156Z,1.60
2019-04-01T06:37:43.972Z,1.50
2019-04-01T06:40:43.786Z,1.60
2019-04-01T06:43:24.915Z,1.77
2019-04-01T06:46:05.616Z,1.67
2019-04-01T06:48:46.307Z,1.57
2019-04-01T06:51:26.830Z,1.50
2019-04-01T06:54:08.133Z,1.70
2019-04-01T06:56:48.855Z,1.67
2019-04-01T06:59:29.743Z,1.63
2019-04-01T07:02:10.235Z,1.47
2019-04-01T07:04:50.794Z,1.60
2019-04-01T07:07:31.318Z,1.57
2019-04-01T07:10:12.067Z,1.67
2019-04-01T07:12:52.625Z,1.70
2019-04-01T07:15:33.502Z,1.77
2019-04-01T07:18:14.171Z,2.33
2019-04-01T07:20:54.763Z,1.90
2019-04-01T07:23:35.717Z,1.60
2019-04-01T07:26:16.739Z,1.70
2019-04-01T07:28:57.331Z,1.93
2019-04-01T07:31:37.978Z,1.37
2019-04-01T07:34:18.431Z,1.80
2019-04-01T07:36:58.849Z,1.47
2019-04-01T07:39:39.544Z,1.77
2019-04-01T07:42:20.046Z,1.57
2019-04-01T07:45:00.647Z,1.63
2019-04-01T07:47:41.097Z,1.77
2019-04-01T07:50:22.204Z,1.50
2019-04-01T07:53:02.619Z,1.50
2019-04-01T07:55:43.534Z,1.60
2019-04-01T07:58:24.481Z,1.40
2019-04-01T08:01:05.010Z,1.50
2019-04-01T08:03:45.551Z,1.40
2019-04-01T08:06:26.119Z,1.60
2019-04-01T08:09:06.912Z,2.07
2019-04-01T08:11:50.015Z,1.53
2019-04-01T08:14:30.316Z,1.40
2019-04-01T08:17:11.120Z,1.40
2019-04-01T08:19:52.368Z,1.60
2019-04-01T08:22:33.057Z,1.60
2019-04-01T08:25:13.915Z,1.70
2019-04-01T08:27:54.236Z,1.60
2019-04-01T08:30:35.228Z,1.67
2019-04-01T08:33:15.832Z,1.47
2019-04-01T08:35:56.940Z,1.63
2019-04-01T08:38:37.353Z,1.60
2019-04-01T08:41:17.775Z,1.70
2019-04-01T08:43:58.620Z,1.70
2019-04-01T08:46:39.554Z,1.53
2019-04-01T08:49:20.704Z,1.87
2019-04-01T08:52:01.675Z,2.57
2019-04-01T08:54:42.375Z,2.30
2019-04-01T08:57:22.971Z,1.80
2019-04-01T09:00:06.424Z,1.70
2019-04-01T09:02:46.947Z,1.50
2019-04-01T09:05:27.438Z,1.90
2019-04-01T09:08:07.817Z,1.73
2019-04-01T09:10:48.351Z,1.67
2019-04-01T09:13:29.067Z,1.90
2019-04-01T09:16:09.848Z,1.80
2019-04-01T09:18:50.367Z,1.90
2019-04-01T09:21:18.947Z,2.03
2019-04-01T09:24:06.851Z,2.00
2019-04-01T09:26:54.778Z,2.10
2019-04-01T09:35:26.071Z,2.20
2019-04-01T09:38:13.971Z,2.13
2019-04-01T09:41:01.461Z,1.70
2019-04-01T09:44:07.331Z,1.93
2019-04-01T09:46:55.251Z,1.90
2019-04-01T09:49:43.167Z,1.90
2019-04-01T09:52:31.079Z,1.70
2019-04-01T09:55:18.987Z,1.57
2019-04-01T09:57:59.692Z,2.40
2019-04-01T10:00:40.479Z,1.70
2019-04-01T10:03:21.275Z,2.17
2019-04-01T10:09:10.635Z,1.80
2019-04-01T10:11:51.359Z,1.80
2019-04-01T10:14:32.062Z,1.80
2019-04-01T10:17:13.191Z,1.80
2019-04-01T10:19:54.159Z,2.00
2019-04-01T10:22:34.651Z,2.00
2019-04-01T10:25:15.523Z,2.00
2019-04-01T10:27:56.504Z,1.40
2019-04-01T10:30:37.051Z,1.70
2019-04-01T10:33:18.013Z,1.80
2019-04-01T10:35:58.927Z,1.80
2019-04-01T10:38:39.583Z,1.80
2019-04-01T10:41:20.421Z,1.80
2019-04-01T10:44:04.614Z,1.80
2019-04-01T10:46:43.863Z,1.47
2019-04-01T10:49:24.475Z,1.90
2019-04-01T10:52:05.193Z,1.60
2019-04-01T10:54:45.543Z,1.60
2019-04-01T10:57:26.410Z,1.70
2019-04-01T11:00:06.962Z,1.70
2019-04-01T11:02:50.019Z,2.00
2019-04-01T11:05:30.394Z,1.80
2019-04-01T11:08:11.097Z,1.70
2019-04-01T11:10:51.767Z,1.60
2019-04-01T11:13:32.700Z,1.67
2019-04-01T11:16:13.679Z,1.77
2019-04-01T11:18:57.856Z,1.50
2019-04-01T11:21:37.094Z,1.60
2019-04-01T11:24:17.819Z,1.30
2019-04-01T11:26:58.211Z,1.57
2019-04-01T11:29:38.596Z,1.70
2019-04-01T11:32:19.506Z,1.40
2019-04-01T11:34:59.897Z,1.70
2019-04-01T11:37:41.561Z,1.70
2019-04-01T11:40:22.551Z,1.40
2019-04-01T11:43:05.118Z,1.50
2019-04-01T11:45:45.897Z,1.67
2019-04-01T11:48:26.675Z,1.60
2019-04-01T11:51:07.699Z,1.50
2019-04-01T11:56:53.427Z,1.97
2019-04-01T11:59:34.223Z,1.90
2019-04-01T12:02:16.478Z,1.73
2019-04-01T12:04:57.935Z,1.63
2019-04-01T12:07:38.380Z,1.60
2019-04-01T12:10:19.019Z,1.83
2019-04-01T12:13:00.153Z,1.70
2019-04-01T12:15:41.307Z,1.77
2019-04-01T12:18:21.759Z,1.60
2019-04-01T12:21:02.406Z,1.67
2019-04-01T12:23:43.051Z,1.60
2019-04-01T12:26:23.495Z,1.50
2019-04-01T12:29:04.309Z,1.43
2019-04-01T12:31:45.163Z,1.70
2019-04-01T12:34:26.271Z,1.60
2019-04-01T12:37:06.887Z,1.90
2019-04-01T12:39:47.864Z,1.70
2019-04-01T12:42:28.848Z,1.50
2019-04-01T12:45:10.425Z,1.50
2019-04-01T12:47:51.295Z,1.77
2019-04-01T12:50:32.108Z,1.40
2019-04-01T12:53:13.091Z,1.40
2019-04-01T12:55:54.091Z,1.80
2019-04-01T12:58:34.691Z,1.80
2019-04-01T13:01:15.344Z,1.83
2019-04-01T13:03:56.167Z,1.70
2019-04-01T13:06:36.689Z,2.10
2019-04-01T13:09:17.442Z,2.00
2019-04-01T13:11:57.888Z,1.53
2019-04-01T13:14:40.250Z,1.70
2019-04-01T13:17:21.539Z,1.90
2019-04-01T13:20:02.188Z,1.73
2019-04-01T13:22:42.967Z,1.70
2019-04-01T13:25:23.663Z,2.07
2019-04-01T13:28:04.416Z,1.90
2019-04-01T13:30:45.029Z,1.80
2019-04-01T13:33:25.839Z,1.60
2019-04-01T13:36:07.984Z,1.60
2019-04-01T13:38:48.462Z,1.80
2019-04-01T13:41:41.721Z,1.73
2019-04-01T13:44:11.907Z,1.60
2019-04-01T13:46:55.813Z,1.87
2019-04-01T13:49:35.091Z,1.57
2019-04-01T13:52:15.798Z,1.50
2019-04-01T13:54:56.608Z,1.97
2019-04-01T13:57:37.503Z,2.00
2019-04-01T14:00:20.120Z,1.90
2019-04-01T14:03:01.068Z,1.77
2019-04-01T14:05:42.061Z,1.70
2019-04-01T14:08:22.924Z,1.70
2019-04-01T14:11:05.950Z,1.53
2019-04-01T14:13:45.647Z,1.57
2019-04-01T14:16:26.208Z,1.57
2019-04-01T14:19:07.229Z,1.63
2019-04-01T14:21:48.026Z,1.40
2019-04-01T14:24:28.631Z,1.70
2019-04-01T14:27:09.349Z,1.63
2019-04-01T14:29:50.722Z,1.70
2019-04-01T14:32:31.195Z,2.00
2019-04-01T14:35:12.111Z,1.60
2019-04-01T14:37:52.826Z,1.60
2019-04-01T14:40:33.795Z,1.77
2019-04-01T14:43:14.143Z,1.80
2019-04-01T14:45:54.732Z,1.90
2019-04-01T14:48:35.275Z,1.70
2019-04-01T14:51:16.136Z,1.77
2019-04-01T14:53:56.803Z,1.53
2019-04-01T14:56:37.348Z,1.90
2019-04-01T14:59:18.068Z,1.70
2019-04-01T15:01:59.328Z,1.50
2019-04-01T15:04:41.755Z,1.87
2019-04-01T15:07:22.527Z,1.50
2019-04-01T15:10:03.222Z,2.00
2019-04-01T15:12:43.786Z,1.83
2019-04-01T15:15:24.788Z,1.90
2019-04-01T15:18:05.061Z,2.03
2019-04-01T15:20:46.331Z,1.83
2019-04-01T15:23:27.479Z,2.37
2019-04-01T15:26:11.639Z,1.80
2019-04-01T15:28:52.587Z,1.77
2019-04-01T15:31:33.270Z,2.17
2019-04-01T15:34:14.611Z,1.90
2019-04-01T15:36:55.081Z,1.90
2019-04-01T15:39:35.694Z,2.00
2019-04-01T15:42:16.050Z,1.90
2019-04-01T15:44:56.567Z,1.73
2019-04-01T15:47:38.318Z,1.83
2019-04-01T15:50:28.181Z,2.00
2019-04-01T15:53:01.660Z,2.27
2019-04-01T15:55:42.640Z,1.80
2019-04-01T15:58:23.240Z,1.83
2019-04-01T16:01:03.927Z,1.93
2019-04-01T16:03:44.467Z,2.10
2019-04-01T16:06:25.107Z,1.83
2019-04-01T16:09:05.923Z,1.67
2019-04-01T16:11:47.460Z,1.80
2019-04-01T16:14:28.359Z,1.93
2019-04-01T16:17:09.416Z,1.83
2019-04-01T16:19:50.368Z,1.50
2019-04-01T16:25:50.228Z,1.60
2019-04-01T16:28:32.667Z,1.57
2019-04-01T16:31:13.638Z,1.70
2019-04-01T16:33:54.109Z,1.80
2019-04-01T16:36:34.971Z,1.60
2019-04-01T16:39:15.737Z,1.70
2019-04-01T16:41:56.539Z,1.83
2019-04-01T16:44:37.230Z,1.80
2019-04-01T16:47:17.831Z,1.60
2019-04-01T16:49:58.523Z,1.50
2019-04-01T16:52:39.193Z,1.57
2019-04-01T16:55:20.157Z,1.80
2019-04-01T16:58:00.748Z,1.70
2019-04-01T17:00:41.428Z,1.73
2019-04-01T17:06:41.219Z,1.70
2019-04-01T17:09:21.939Z,1.50
2019-04-01T17:12:02.879Z,1.73
2019-04-01T17:18:02.339Z,1.53
2019-04-01T17:20:43.090Z,1.67
2019-04-01T17:23:23.667Z,1.80
2019-04-01T17:26:04.595Z,1.87
2019-04-01T17:28:45.373Z,2.20
2019-04-01T17:31:25.968Z,1.90
2019-04-01T17:34:07.053Z,1.77
2019-04-01T17:36:48.003Z,1.70
2019-04-01T17:39:28.461Z,1.80
2019-04-01T17:42:09.063Z,1.70
2019-04-01T17:44:49.764Z,1.60
2019-04-01T17:47:30.443Z,1.83
2019-04-01T17:50:10.892Z,2.00
2019-04-01T17:52:52.880Z,1.83
2019-04-01T17:55:34.781Z,1.70
2019-04-01T17:58:16.079Z,1.90
2019-04-01T18:00:58.511Z,1.90
2019-04-01T18:03:39.567Z,1.80
2019-04-01T18:06:20.604Z,1.90
2019-04-01T18:09:02.163Z,1.80
2019-04-01T18:11:44.147Z,1.90
2019-04-01T18:14:24.539Z,1.70
2019-04-01T18:17:05.303Z,2.00
2019-04-01T18:19:46.195Z,1.67
2019-04-01T18:22:28.904Z,1.77
2019-04-01T18:25:09.688Z,1.90
2019-04-01T18:27:50.421Z,2.10
2019-04-01T18:30:31.600Z,2.07
2019-04-01T18:33:12.556Z,2.57
2019-04-01T18:35:54.344Z,2.40
2019-04-01T18:38:35.508Z,2.10
2019-04-01T18:41:17.028Z,2.10
2019-04-01T18:43:58.057Z,2.00
2019-04-01T18:46:39.378Z,2.10
2019-04-01T18:49:20.063Z,1.70
2019-04-01T18:52:01.367Z,1.73
2019-04-01T18:54:42.629Z,1.90
2019-04-01T18:57:23.997Z,1.70
2019-04-01T19:00:04.814Z,2.00
2019-04-01T19:02:45.868Z,2.07
2019-04-01T19:05:27.492Z,2.03
2019-04-01T19:11:14.111Z,2.50
2019-04-01T19:13:54.798Z,1.77
2019-04-01T19:16:35.731Z,1.67
2019-04-01T19:19:16.216Z,1.90
2019-04-01T19:21:56.790Z,1.77
2019-04-01T19:24:25.361Z,1.97
2019-04-01T19:27:13.296Z,2.03
2019-04-01T19:30:01.215Z,2.20
2019-04-01T19:32:49.272Z,2.30
2019-04-01T19:35:37.668Z,1.90
2019-04-01T19:38:25.674Z,1.97
2019-04-01T19:41:13.595Z,1.70
2019-04-01T19:44:01.544Z,2.10
2019-04-01T19:46:49.623Z,1.50
2019-04-01T19:49:37.555Z,1.90
2019-04-01T19:52:26.305Z,2.27
2019-04-01T19:55:15.679Z,2.57
2019-04-01T19:57:56.966Z,1.90
2019-04-01T20:00:38.049Z,2.00
2019-04-01T20:03:18.604Z,2.00
2019-04-01T20:05:59.311Z,1.90
2019-04-01T20:08:39.796Z,1.97
2019-04-01T20:11:20.451Z,2.00
2019-04-01T20:14:00.979Z,2.00
2019-04-01T20:16:41.594Z,1.70
2019-04-01T20:19:22.000Z,1.80
2019-04-01T20:22:02.522Z,2.47
2019-04-01T20:24:43.164Z,1.90
2019-04-01T20:27:23.691Z,2.00
2019-04-01T20:30:04.468Z,2.00
2019-04-01T20:32:45.111Z,1.80
2019-04-01T20:35:26.079Z,2.10
2019-04-01T20:38:06.612Z,1.90
2019-04-01T20:40:47.087Z,1.90
2019-04-01T20:43:27.805Z,1.63
2019-04-01T20:46:08.355Z,1.87
2019-04-01T20:48:48.842Z,1.50
2019-04-01T20:51:29.199Z,1.87
2019-04-01T20:54:10.032Z,1.90
2019-04-01T20:56:50.683Z,1.80
2019-04-01T20:59:31.502Z,2.00
2019-04-01T21:02:12.267Z,1.70
2019-04-01T21:04:52.867Z,1.90
2019-04-01T21:07:33.807Z,2.00
2019-04-01T21:10:14.567Z,2.00
2019-04-01T21:12:55.236Z,2.00
2019-04-01T21:15:35.900Z,1.90
2019-04-01T21:18:16.400Z,1.93
2019-04-01T21:20:57.026Z,1.87
2019-04-01T21:23:37.727Z,1.90
2019-04-01T21:26:18.204Z,1.90
2019-04-01T21:28:58.994Z,1.80
2019-04-01T21:31:39.521Z,2.10
2019-04-01T21:34:20.087Z,2.00
2019-04-01T21:37:03.227Z,1.90
2019-04-01T21:39:43.516Z,1.93
2019-04-01T21:42:24.281Z,2.00
2019-04-01T21:45:04.934Z,1.70
2019-04-01T21:47:45.639Z,1.83
2019-04-01T21:50:29.485Z,1.93
2019-04-01T21:53:09.440Z,1.90
2019-04-01T21:55:50.320Z,2.40
2019-04-01T21:58:31.007Z,2.70
2019-04-01T22:01:14.238Z,2.40
2019-04-01T22:03:55.436Z,2.00
2019-04-01T22:06:35.908Z,2.30
2019-04-01T22:09:16.799Z,2.30
2019-04-01T22:11:58.188Z,2.00
2019-04-01T22:14:42.135Z,1.97
2019-04-01T22:17:22.655Z,2.00
2019-04-01T22:20:03.395Z,1.87
2019-04-01T22:22:44.664Z,1.80
2019-04-01T22:25:25.647Z,2.10
2019-04-01T22:28:06.508Z,1.93
2019-04-01T22:30:47.569Z,1.90
2019-04-01T22:33:28.404Z,1.87
2019-04-01T22:36:09.355Z,2.03
2019-04-01T22:38:51.536Z,1.80
2019-04-01T22:41:32.383Z,2.20
2019-04-01T22:44:13.035Z,2.17
2019-04-01T22:46:53.959Z,2.23
2019-04-01T22:49:34.663Z,1.83
2019-04-01T22:52:15.418Z,1.97
2019-04-01T22:54:56.343Z,2.00
2019-04-01T22:57:36.795Z,2.07
2019-04-01T23:00:26.231Z,1.73
2019-04-01T23:03:14.134Z,1.97
2019-04-01T23:06:02.068Z,1.90
2019-04-01T23:08:49.968Z,1.80
2019-04-01T23:11:37.899Z,1.90
2019-04-01T23:14:25.798Z,2.30
2019-04-01T23:17:13.729Z,2.00
2019-04-01T23:20:03.294Z,2.07
2019-04-01T23:22:51.202Z,1.90
2019-04-01T23:25:39.123Z,2.30
2019-04-01T23:28:27.020Z,2.00
2019-04-01T23:31:14.948Z,2.03
2019-04-01T23:34:02.842Z,2.20
2019-04-01T23:36:50.775Z,1.97
2019-04-01T23:39:38.671Z,2.13
2019-04-01T23:42:27.251Z,2.30
2019-04-01T23:45:16.076Z,2.30
2019-04-01T23:48:04.562Z,2.13
2019-04-01T23:50:52.855Z,2.20
2019-04-01T23:57:25.483Z,2.00
